sensor_id;sensor_type;location;lat;lon;timestamp;P1;P2;P0
57798;PMS7003;43626;53.866;30.298;2023-09-08T00:00:41;19;15.8;10.4
57798;PMS7003;43626;53.866;30.298;2023-09-08T00:05:41;18.6;16.4;10.4
57798;PMS7003;43626;53.866;30.298;2023-09-08T00:10:41;17;14;9
57798;PMS7003;43626;53.866;30.298;2023-09-08T00:16:23;22;16.6;9.6
57798;PMS7003;43626;53.866;30.298;2023-09-08T00:20:55;17.6;15;10.2
57798;PMS7003;43626;53.866;30.298;2023-09-08T00:25:43;17.8;15.4;9.4
57798;PMS7003;43626;53.866;30.298;2023-09-08T00:31:23;16.8;14.8;10.2
57798;PMS7003;43626;53.866;30.298;2023-09-08T00:36:01;16.4;14.8;8.8
57798;PMS7003;43626;53.866;30.298;2023-09-08T00:40:43;16.2;13.6;9
57798;PMS7003;43626;53.866;30.298;2023-09-08T00:45:41;18.6;15.4;9.4
57798;PMS7003;43626;53.866;30.298;2023-09-08T00:50:55;21.5;18.5;11.5
57798;PMS7003;43626;53.866;30.298;2023-09-08T00:55:47;21;17;10.6
57798;PMS7003;43626;53.866;30.298;2023-09-08T01:00:41;21;18;11.2
57798;PMS7003;43626;53.866;30.298;2023-09-08T01:06:23;23;18.8;12
57798;PMS7003;43626;53.866;30.298;2023-09-08T01:11:23;21.2;18;11.6
57798;PMS7003;43626;53.866;30.298;2023-09-08T01:16:09;26.4;22.4;13.8
57798;PMS7003;43626;53.866;30.298;2023-09-08T01:21:32;27.8;24.8;15.4
57798;PMS7003;43626;53.866;30.298;2023-09-08T01:25:42;26.8;21.8;14
57798;PMS7003;43626;53.866;30.298;2023-09-08T01:31:09;26;22.6;13.4
57798;PMS7003;43626;53.866;30.298;2023-09-08T01:35:41;25.2;21.4;13
57798;PMS7003;43626;53.866;30.298;2023-09-08T01:40:47;22.4;20.4;12.8
57798;PMS7003;43626;53.866;30.298;2023-09-08T01:45:57;20.2;18.4;11.6
57798;PMS7003;43626;53.866;30.298;2023-09-08T01:50:59;23;20;12.8
57798;PMS7003;43626;53.866;30.298;2023-09-08T01:56:23;21.4;18.8;12
57798;PMS7003;43626;53.866;30.298;2023-09-08T02:01:23;20;17;11
57798;PMS7003;43626;53.866;30.298;2023-09-08T02:06:09;22;18.8;12.8
57798;PMS7003;43626;53.866;30.298;2023-09-08T02:11:23;23.6;21;13.8
57798;PMS7003;43626;53.866;30.298;2023-09-08T02:15:41;28.8;24;14.4
57798;PMS7003;43626;53.866;30.298;2023-09-08T02:21:09;26;22.4;13.6
57798;PMS7003;43626;53.866;30.298;2023-09-08T02:25:41;23.8;20.8;13.2
57798;PMS7003;43626;53.866;30.298;2023-09-08T02:30:41;23.4;20.8;14
57798;PMS7003;43626;53.866;30.298;2023-09-08T02:36:05;22.8;20.4;13
57798;PMS7003;43626;53.866;30.298;2023-09-08T02:40:57;22.4;19.4;13.2
57798;PMS7003;43626;53.866;30.298;2023-09-08T02:46:07;22.6;19.4;12.6
57798;PMS7003;43626;53.866;30.298;2023-09-08T02:51:07;21;19.8;12.8
57798;PMS7003;43626;53.866;30.298;2023-09-08T02:56:23;20.2;16.4;11.2
57798;PMS7003;43626;53.866;30.298;2023-09-08T03:01:23;20.2;17;10.8
57798;PMS7003;43626;53.866;30.298;2023-09-08T03:06:01;14.2;12.2;7.8
57798;PMS7003;43626;53.866;30.298;2023-09-08T03:11:23;14;12.6;8
57798;PMS7003;43626;53.866;30.298;2023-09-08T03:16:03;14.6;11.8;7.6
57798;PMS7003;43626;53.866;30.298;2023-09-08T03:20:41;13;11.2;8.2
57798;PMS7003;43626;53.866;30.298;2023-09-08T03:26:05;15.2;13.2;8.8
57798;PMS7003;43626;53.866;30.298;2023-09-08T03:30:51;15.6;12.8;8.6
57798;PMS7003;43626;53.866;30.298;2023-09-08T03:36:07;12.4;11;7
57798;PMS7003;43626;53.866;30.298;2023-09-08T03:41:07;14.8;12.4;8.6
57798;PMS7003;43626;53.866;30.298;2023-09-08T03:46:23;14.4;11.4;8.2
57798;PMS7003;43626;53.866;30.298;2023-09-08T03:51:23;15;12;8.8
57798;PMS7003;43626;53.866;30.298;2023-09-08T03:55:55;15;12.6;8
57798;PMS7003;43626;53.866;30.298;2023-09-08T04:01:23;14.8;13.6;8.4
57798;PMS7003;43626;53.866;30.298;2023-09-08T04:06:15;18;14.6;9.8
57798;PMS7003;43626;53.866;30.298;2023-09-08T04:11:03;14.8;11.8;7.4
57798;PMS7003;43626;53.866;30.298;2023-09-08T04:15:55;16.6;14.4;10
57798;PMS7003;43626;53.866;30.298;2023-09-08T04:20:51;15.2;13.4;9.6
57798;PMS7003;43626;53.866;30.298;2023-09-08T04:25:43;19.6;16.2;10.2
57798;PMS7003;43626;53.866;30.298;2023-09-08T04:31:01;20.2;16.8;10.6
57798;PMS7003;43626;53.866;30.298;2023-09-08T04:36:23;21.2;18.6;11.8
57798;PMS7003;43626;53.866;30.298;2023-09-08T04:41:23;20.8;19;11.4
57798;PMS7003;43626;53.866;30.298;2023-09-08T04:46:01;26.8;22.2;14.2
57798;PMS7003;43626;53.866;30.298;2023-09-08T04:51:23;22.3;20.8;13.5
57798;PMS7003;43626;53.866;30.298;2023-09-08T04:55:41;25.2;20.2;13.4
57798;PMS7003;43626;53.866;30.298;2023-09-08T05:01:01;23.4;19;12
57798;PMS7003;43626;53.866;30.298;2023-09-08T05:06:05;18.2;16.4;10.4
57798;PMS7003;43626;53.866;30.298;2023-09-08T05:11:15;14.2;12.2;7.2
57798;PMS7003;43626;53.866;30.298;2023-09-08T05:16:23;13.4;11;7.2
57798;PMS7003;43626;53.866;30.298;2023-09-08T05:21:07;9.6;7.2;4.4
57798;PMS7003;43626;53.866;30.298;2023-09-08T05:26:23;7;5.8;4
57798;PMS7003;43626;53.866;30.298;2023-09-08T05:31:23;9.2;6.4;4.4
57798;PMS7003;43626;53.866;30.298;2023-09-08T05:35:41;7.6;5.6;3.8
57798;PMS7003;43626;53.866;30.298;2023-09-08T05:41:23;5.8;5;3
57798;PMS7003;43626;53.866;30.298;2023-09-08T05:45:59;7.2;5.4;3
57798;PMS7003;43626;53.866;30.298;2023-09-08T05:50:41;6.2;4.6;2.2
57798;PMS7003;43626;53.866;30.298;2023-09-08T05:56:07;5;4.5;2.5
57798;PMS7003;43626;53.866;30.298;2023-09-08T06:00:59;5.6;4.8;2.6
57798;PMS7003;43626;53.866;30.298;2023-09-08T06:06:07;5.4;4;2.6
57798;PMS7003;43626;53.866;30.298;2023-09-08T06:11:07;5.2;4.2;2.2
57798;PMS7003;43626;53.866;30.298;2023-09-08T06:16:23;4.2;3.8;2.2
57798;PMS7003;43626;53.866;30.298;2023-09-08T06:21:24;3.6;3;1.8
57798;PMS7003;43626;53.866;30.298;2023-09-08T06:25:41;4.2;3.6;1.8
57798;PMS7003;43626;53.866;30.298;2023-09-08T06:30:41;5.2;4.6;2.4
57798;PMS7003;43626;53.866;30.298;2023-09-08T06:35:41;3.6;3;1.8
57798;PMS7003;43626;53.866;30.298;2023-09-08T06:40:41;5.6;4;2.4
57798;PMS7003;43626;53.866;30.298;2023-09-08T06:46:21;4;3.6;1.8
57798;PMS7003;43626;53.866;30.298;2023-09-08T06:50:57;5.8;3.6;2.2
57798;PMS7003;43626;53.866;30.298;2023-09-08T06:55:53;2.8;2.3;1
57798;PMS7003;43626;53.866;30.298;2023-09-08T07:01:07;3.4;2.6;1
57798;PMS7003;43626;53.866;30.298;2023-09-08T07:05:53;3.6;2.6;1.6
57798;PMS7003;43626;53.866;30.298;2023-09-08T07:11:23;3.8;2.8;1.8
57798;PMS7003;43626;53.866;30.298;2023-09-08T07:16:15;3;2.4;1.2
57798;PMS7003;43626;53.866;30.298;2023-09-08T07:21:09;1.8;1.6;0.6
57798;PMS7003;43626;53.866;30.298;2023-09-08T07:25:44;1.8;1.8;0.6
57798;PMS7003;43626;53.866;30.298;2023-09-08T07:31:01;3;2.2;1
57798;PMS7003;43626;53.866;30.298;2023-09-08T07:36:23;2.6;2;0.8
57798;PMS7003;43626;53.866;30.298;2023-09-08T07:40:51;2.2;1.2;0.4
57798;PMS7003;43626;53.866;30.298;2023-09-08T07:46:07;2.4;2;0.4
57798;PMS7003;43626;53.866;30.298;2023-09-08T07:51:09;2.8;1.8;1
57798;PMS7003;43626;53.866;30.298;2023-09-08T07:56:09;2;1.5;0.5
57798;PMS7003;43626;53.866;30.298;2023-09-08T08:01:23;1.2;1;0.4
57798;PMS7003;43626;53.866;30.298;2023-09-08T08:06:15;2.4;1.6;0.4
57798;PMS7003;43626;53.866;30.298;2023-09-08T08:10:41;2.2;1.4;0.2
57798;PMS7003;43626;53.866;30.298;2023-09-08T08:16:05;1.2;1;0.2
57798;PMS7003;43626;53.866;30.298;2023-09-08T08:20:41;1.8;1.2;0
57798;PMS7003;43626;53.866;30.298;2023-09-08T08:26:21;2.6;1.6;0.4
57798;PMS7003;43626;53.866;30.298;2023-09-08T08:31:03;1.8;1.4;0
57798;PMS7003;43626;53.866;30.298;2023-09-08T08:35:48;1.8;1;0.2
57798;PMS7003;43626;53.866;30.298;2023-09-08T08:41:05;1.8;1.2;0.4
57798;PMS7003;43626;53.866;30.298;2023-09-08T08:45:47;1.4;1;0.6
57798;PMS7003;43626;53.866;30.298;2023-09-08T08:51:23;2.8;1.2;0.6
57798;PMS7003;43626;53.866;30.298;2023-09-08T08:56:15;2;0.8;0.3
57798;PMS7003;43626;53.866;30.298;2023-09-08T09:01:21;0.8;0.2;0
57798;PMS7003;43626;53.866;30.298;2023-09-08T09:05:59;0.8;0.4;0
57798;PMS7003;43626;53.866;30.298;2023-09-08T09:10:47;2.2;0.2;0
57798;PMS7003;43626;53.866;30.298;2023-09-08T09:16:23;1.6;1.4;0.4
57798;PMS7003;43626;53.866;30.298;2023-09-08T09:20:58;1.2;1;0.2
57798;PMS7003;43626;53.866;30.298;2023-09-08T09:25:47;2.2;1;0
57798;PMS7003;43626;53.866;30.298;2023-09-08T09:30:55;1.4;0.6;0
57798;PMS7003;43626;53.866;30.298;2023-09-08T09:36:03;0.6;0.6;0.4
57798;PMS7003;43626;53.866;30.298;2023-09-08T09:41:23;1.2;0.8;0
57798;PMS7003;43626;53.866;30.298;2023-09-08T09:46:15;1.2;0.4;0
57798;PMS7003;43626;53.866;30.298;2023-09-08T09:50:41;0.6;0.2;0
57798;PMS7003;43626;53.866;30.298;2023-09-08T09:55:42;1.3;0.8;0
57798;PMS7003;43626;53.866;30.298;2023-09-08T10:00:41;0.2;0;0
57798;PMS7003;43626;53.866;30.298;2023-09-08T10:06:21;0.8;0.4;0
57798;PMS7003;43626;53.866;30.298;2023-09-08T10:10:57;0.8;0;0
57798;PMS7003;43626;53.866;30.298;2023-09-08T10:15:53;0.6;0.6;0
57798;PMS7003;43626;53.866;30.298;2023-09-08T10:21:07;1;0.6;0.2
57798;PMS7003;43626;53.866;30.298;2023-09-08T10:25:47;1.4;0.2;0
57798;PMS7003;43626;53.866;30.298;2023-09-08T10:31:24;0.4;0;0
57798;PMS7003;43626;53.866;30.298;2023-09-08T10:36:15;1;0.4;0
57798;PMS7003;43626;53.866;30.298;2023-09-08T10:40:41;1;0.4;0
57798;PMS7003;43626;53.866;30.298;2023-09-08T10:45:41;1.2;0.4;0.2
57798;PMS7003;43626;53.866;30.298;2023-09-08T10:50:41;1.6;0.6;0
57798;PMS7003;43626;53.866;30.298;2023-09-08T10:56:21;0;0;0
57798;PMS7003;43626;53.866;30.298;2023-09-08T11:00:43;0.5;0.3;0
57798;PMS7003;43626;53.866;30.298;2023-09-08T11:05:53;0.4;0;0
57798;PMS7003;43626;53.866;30.298;2023-09-08T11:11:07;1.2;0.4;0
57798;PMS7003;43626;53.866;30.298;2023-09-08T11:16:15;0.6;0.2;0
57798;PMS7003;43626;53.866;30.298;2023-09-08T11:21:23;0.4;0;0
57798;PMS7003;43626;53.866;30.298;2023-09-08T11:25:43;0.6;0;0
57798;PMS7003;43626;53.866;30.298;2023-09-08T11:30:41;1;0.4;0
57798;PMS7003;43626;53.866;30.298;2023-09-08T11:36:14;1.8;1.8;1
57798;PMS7003;43626;53.866;30.298;2023-09-08T11:40:41;2.2;1;0.4
57798;PMS7003;43626;53.866;30.298;2023-09-08T11:46:24;2;0.4;0
57798;PMS7003;43626;53.866;30.298;2023-09-08T11:51:13;1.8;0.8;0
57798;PMS7003;43626;53.866;30.298;2023-09-08T11:55:53;2.8;1.6;0
57798;PMS7003;43626;53.866;30.298;2023-09-08T12:01:07;1.5;0.5;0
57798;PMS7003;43626;53.866;30.298;2023-09-08T12:06:15;1.4;0.8;0
57798;PMS7003;43626;53.866;30.298;2023-09-08T12:11:23;2;1;0
57798;PMS7003;43626;53.866;30.298;2023-09-08T12:16:17;1.6;1.4;0.4
57798;PMS7003;43626;53.866;30.298;2023-09-08T12:21:02;1.2;1;0.6
57798;PMS7003;43626;53.866;30.298;2023-09-08T12:25:44;4.4;3.6;1.4
57798;PMS7003;43626;53.866;30.298;2023-09-08T12:30:41;2.4;2.4;0.8
57798;PMS7003;43626;53.866;30.298;2023-09-08T12:36:23;2.4;1.2;0.2
57798;PMS7003;43626;53.866;30.298;2023-09-08T12:40:41;2.4;1.8;0.4
57798;PMS7003;43626;53.866;30.298;2023-09-08T12:45:47;1.4;1;0
57798;PMS7003;43626;53.866;30.298;2023-09-08T12:51:07;1.6;1;0.4
57798;PMS7003;43626;53.866;30.298;2023-09-08T12:56:15;1.8;1;0.2
57798;PMS7003;43626;53.866;30.298;2023-09-08T13:01:23;1;0.8;0
57798;PMS7003;43626;53.866;30.298;2023-09-08T13:06:23;1.2;1.2;0.6
57798;PMS7003;43626;53.866;30.298;2023-09-08T13:10:47;1.6;1.4;0.2
57798;PMS7003;43626;53.866;30.298;2023-09-08T13:15:53;1.4;1;0.2
57798;PMS7003;43626;53.866;30.298;2023-09-08T13:20:41;3;2.6;1
57798;PMS7003;43626;53.866;30.298;2023-09-08T13:26:21;1.8;1.3;0.8
57798;PMS7003;43626;53.866;30.298;2023-09-08T13:30:57;4.6;3;1.6
57798;PMS7003;43626;53.866;30.298;2023-09-08T13:35:53;6.6;4.8;2.4
57798;PMS7003;43626;53.866;30.298;2023-09-08T13:41:11;4.2;3.2;1
57798;PMS7003;43626;53.866;30.298;2023-09-08T13:46:16;3.6;2.2;1.2
57798;PMS7003;43626;53.866;30.298;2023-09-08T13:51:23;3.6;2;0.8
57798;PMS7003;43626;53.866;30.298;2023-09-08T13:56:15;2.8;2.2;0.6
57798;PMS7003;43626;53.866;30.298;2023-09-08T14:01:09;3.2;2.2;1.2
57798;PMS7003;43626;53.866;30.298;2023-09-08T14:05:47;2.8;2;1
57798;PMS7003;43626;53.866;30.298;2023-09-08T14:10:52;6.6;5.2;3
57798;PMS7003;43626;53.866;30.298;2023-09-08T14:16:26;6.2;5.4;3.2
57798;PMS7003;43626;53.866;30.298;2023-09-08T14:20:41;3;2.2;1.4
57798;PMS7003;43626;53.866;30.298;2023-09-08T14:25:55;4.4;3.2;1.8
57798;PMS7003;43626;53.866;30.298;2023-09-08T14:31:09;4.8;3.3;1.8
57798;PMS7003;43626;53.866;30.298;2023-09-08T14:36:16;5.8;5;2.6
57798;PMS7003;43626;53.866;30.298;2023-09-08T14:41:25;8.2;7.2;4.4
57798;PMS7003;43626;53.866;30.298;2023-09-08T14:46:15;26.4;22.2;14
57798;PMS7003;43626;53.866;30.298;2023-09-08T14:50:47;14.4;12;6.6
57798;PMS7003;43626;53.866;30.298;2023-09-08T14:55:55;7.8;6.6;4
57798;PMS7003;43626;53.866;30.298;2023-09-08T15:00:47;5;3.8;2.2
57798;PMS7003;43626;53.866;30.298;2023-09-08T15:06:15;6.2;4.8;2.8
57798;PMS7003;43626;53.866;30.298;2023-09-08T15:11:11;10.2;8.8;5.2
57798;PMS7003;43626;53.866;30.298;2023-09-08T15:15:57;8;6.6;3.6
57798;PMS7003;43626;53.866;30.298;2023-09-08T15:21:11;11.4;9.4;5.8
57798;PMS7003;43626;53.866;30.298;2023-09-08T15:26:25;18.6;15.6;8.4
57798;PMS7003;43626;53.866;30.298;2023-09-08T15:31:25;23;20;10
57798;PMS7003;43626;53.866;30.298;2023-09-08T15:36:25;19.2;15.6;9.6
57798;PMS7003;43626;53.866;30.298;2023-09-08T15:41:12;18.2;15.2;9.6
57798;PMS7003;43626;53.866;30.298;2023-09-08T15:45:41;27.6;25.4;16.4
57798;PMS7003;43626;53.866;30.298;2023-09-08T15:51:25;35.4;28;17.8
57798;PMS7003;43626;53.866;30.298;2023-09-08T15:56:13;45.4;36;22.4
57798;PMS7003;43626;53.866;30.298;2023-09-08T16:01:11;32.4;28.4;18.2
57798;PMS7003;43626;53.866;30.298;2023-09-08T16:05:55;23;21.4;14
57798;PMS7003;43626;53.866;30.298;2023-09-08T16:10:45;19.2;17.4;12.2
57798;PMS7003;43626;53.866;30.298;2023-09-08T16:16:25;11.2;9.6;6
57798;PMS7003;43626;53.866;30.298;2023-09-08T16:21:01;14;10.8;5.8
57798;PMS7003;43626;53.866;30.298;2023-09-08T16:25:41;19.6;15.8;10
57798;PMS7003;43626;53.866;30.298;2023-09-08T16:30:41;27.5;24;14.3
57798;PMS7003;43626;53.866;30.298;2023-09-08T16:35:43;20.6;16.6;10.6
57798;PMS7003;43626;53.866;30.298;2023-09-08T16:41:25;14.8;12.8;8.2
57798;PMS7003;43626;53.866;30.298;2023-09-08T16:46:13;18.2;14.6;9
57798;PMS7003;43626;53.866;30.298;2023-09-08T16:51:03;20.2;15.8;9.4
57798;PMS7003;43626;53.866;30.298;2023-09-08T16:55:47;17.2;14;9.2
57798;PMS7003;43626;53.866;30.298;2023-09-08T17:00:43;16;13.8;9.2
57798;PMS7003;43626;53.866;30.298;2023-09-08T17:06:23;24.4;21.2;13.4
57798;PMS7003;43626;53.866;30.298;2023-09-08T17:10:41;22.8;20.2;12.4
57798;PMS7003;43626;53.866;30.298;2023-09-08T17:15:47;22;20.6;13
57798;PMS7003;43626;53.866;30.298;2023-09-08T17:20:51;42;34.2;21.8
57798;PMS7003;43626;53.866;30.298;2023-09-08T17:25:41;50.2;39;26
57798;PMS7003;43626;53.866;30.298;2023-09-08T17:31:25;42;33.3;22.3
57798;PMS7003;43626;53.866;30.298;2023-09-08T17:36:16;37.4;31.8;19.8
57798;PMS7003;43626;53.866;30.298;2023-09-08T17:41:25;37.2;30.8;20
57798;PMS7003;43626;53.866;30.298;2023-09-08T17:45:49;36;29.8;19.2
57798;PMS7003;43626;53.866;30.298;2023-09-08T17:51:23;30;27;17.8
57798;PMS7003;43626;53.866;30.298;2023-09-08T17:56:23;31.6;27.8;17.8
57798;PMS7003;43626;53.866;30.298;2023-09-08T18:00:59;39.6;31.8;20.6
57798;PMS7003;43626;53.866;30.298;2023-09-08T18:05:47;40.2;33.4;21.2
57798;PMS7003;43626;53.866;30.298;2023-09-08T18:10:41;37;28.6;17.6
57798;PMS7003;43626;53.866;30.298;2023-09-08T18:16:02;22.8;19.4;12.8
57798;PMS7003;43626;53.866;30.298;2023-09-08T18:21:23;20.4;16;10
57798;PMS7003;43626;53.866;30.298;2023-09-08T18:26:13;18.2;15.2;9.6
57798;PMS7003;43626;53.866;30.298;2023-09-08T18:30:57;22.8;18;11
57798;PMS7003;43626;53.866;30.298;2023-09-08T18:35:47;37.6;30.2;19.4
57798;PMS7003;43626;53.866;30.298;2023-09-08T18:40:43;32.8;27.8;17.6
57798;PMS7003;43626;53.866;30.298;2023-09-08T18:46:23;25.8;23;15.2
57798;PMS7003;43626;53.866;30.298;2023-09-08T18:51:03;20.2;18.2;12
57798;PMS7003;43626;53.866;30.298;2023-09-08T18:55:49;19.6;16;10.4
57798;PMS7003;43626;53.866;30.298;2023-09-08T19:01:03;22.4;17.4;10
57798;PMS7003;43626;53.866;30.298;2023-09-08T19:05:49;24.2;20.4;11.8
57798;PMS7003;43626;53.866;30.298;2023-09-08T19:11:27;21.8;19;10.8
57798;PMS7003;43626;53.866;30.298;2023-09-08T19:16:27;16;13.2;8.2
57798;PMS7003;43626;53.866;30.298;2023-09-08T19:21:13;11.8;9.4;6
57798;PMS7003;43626;53.866;30.298;2023-09-08T19:25:55;9.4;7.4;4.6
57798;PMS7003;43626;53.866;30.298;2023-09-08T19:31:13;8.8;7.4;4.8
57798;PMS7003;43626;53.866;30.298;2023-09-08T19:36:27;11;9;5.8
57798;PMS7003;43626;53.866;30.298;2023-09-08T19:41:15;10.6;9.2;5.2
57798;PMS7003;43626;53.866;30.298;2023-09-08T19:46:00;11;9;6.2
57798;PMS7003;43626;53.866;30.298;2023-09-08T19:50:43;9;8;5
57798;PMS7003;43626;53.866;30.298;2023-09-08T19:56:11;12;9.4;6.2
57798;PMS7003;43626;53.866;30.298;2023-09-08T20:01:27;11;9.2;6
57798;PMS7003;43626;53.866;30.298;2023-09-08T20:05:44;10;7.8;4.8
57798;PMS7003;43626;53.866;30.298;2023-09-08T20:11:27;9.2;7.8;4.6
57798;PMS7003;43626;53.866;30.298;2023-09-08T20:15:57;14;11.4;7.4
57798;PMS7003;43626;53.866;30.298;2023-09-08T20:20:51;10;8.8;5.4
57798;PMS7003;43626;53.866;30.298;2023-09-08T20:26:27;9.8;8.2;5.6
57798;PMS7003;43626;53.866;30.298;2023-09-08T20:30:41;9.4;7.8;5.4
57798;PMS7003;43626;53.866;30.298;2023-09-08T20:35:41;11.3;8.3;5
57798;PMS7003;43626;53.866;30.298;2023-09-08T20:40:57;10;8.4;5
57798;PMS7003;43626;53.866;30.298;2023-09-08T20:46:17;8;7.4;4.2
57798;PMS7003;43626;53.866;30.298;2023-09-08T20:51:27;8.8;7;4.4
57798;PMS7003;43626;53.866;30.298;2023-09-08T20:56:17;8.6;7.2;4.4
57798;PMS7003;43626;53.866;30.298;2023-09-08T21:00:49;7.2;5.8;3.6
57798;PMS7003;43626;53.866;30.298;2023-09-08T21:06:19;7.2;6;3.6
57798;PMS7003;43626;53.866;30.298;2023-09-08T21:11:17;9.2;7;4
57798;PMS7003;43626;53.866;30.298;2023-09-08T21:16:27;10.4;8.2;4.8
57798;PMS7003;43626;53.866;30.298;2023-09-08T21:20:41;17.8;13.6;7.2
57798;PMS7003;43626;53.866;30.298;2023-09-08T21:25:41;20;16.6;8.4
57798;PMS7003;43626;53.866;30.298;2023-09-08T21:31:09;11;8;4.6
57798;PMS7003;43626;53.866;30.298;2023-09-08T21:36:15;13.3;11.3;5.5
57798;PMS7003;43626;53.866;30.298;2023-09-08T21:41:10;10.6;9.6;5.2
57798;PMS7003;43626;53.866;30.298;2023-09-08T21:46:15;8.2;6.4;4.2
57798;PMS7003;43626;53.866;30.298;2023-09-08T21:50:43;9.2;7.8;4.6
57798;PMS7003;43626;53.866;30.298;2023-09-08T21:55:55;8.8;7.6;4.8
57798;PMS7003;43626;53.866;30.298;2023-09-08T22:01:03;10;8.6;5.6
57798;PMS7003;43626;53.866;30.298;2023-09-08T22:06:27;12.4;9.8;5.6
57798;PMS7003;43626;53.866;30.298;2023-09-08T22:11:01;9.8;8.6;5
57798;PMS7003;43626;53.866;30.298;2023-09-08T22:15:41;8.8;6.2;3.4
57798;PMS7003;43626;53.866;30.298;2023-09-08T22:20:57;6.4;5.4;3
57798;PMS7003;43626;53.866;30.298;2023-09-08T22:25:43;5.6;5;2.6
57798;PMS7003;43626;53.866;30.298;2023-09-08T22:31:27;4.8;4.8;2.6
57798;PMS7003;43626;53.866;30.298;2023-09-08T22:36:27;7.8;5.3;3
57798;PMS7003;43626;53.866;30.298;2023-09-08T22:40:43;5;4.8;2.8
57798;PMS7003;43626;53.866;30.298;2023-09-08T22:45:41;5.4;4.8;2.4
57798;PMS7003;43626;53.866;30.298;2023-09-08T22:51:17;6.6;4.8;2.8
57798;PMS7003;43626;53.866;30.298;2023-09-08T22:56:27;6;4.2;2.4
57798;PMS7003;43626;53.866;30.298;2023-09-08T23:00:41;5.4;4;2.6
57798;PMS7003;43626;53.866;30.298;2023-09-08T23:06:13;6.6;6;4
57798;PMS7003;43626;53.866;30.298;2023-09-08T23:11:03;5.8;5.2;4
57798;PMS7003;43626;53.866;30.298;2023-09-08T23:16:27;6.4;5.2;3.2
57798;PMS7003;43626;53.866;30.298;2023-09-08T23:21:28;5.2;5.2;3.6
57798;PMS7003;43626;53.866;30.298;2023-09-08T23:26:15;6.2;5.4;2.8
57798;PMS7003;43626;53.866;30.298;2023-09-08T23:31:06;5.4;5;2.8
57798;PMS7003;43626;53.866;30.298;2023-09-08T23:35:47;7.5;6;4
57798;PMS7003;43626;53.866;30.298;2023-09-08T23:40:41;7.8;6.8;4
57798;PMS7003;43626;53.866;30.298;2023-09-08T23:46:26;6.6;5.2;2.6
57798;PMS7003;43626;53.866;30.298;2023-09-08T23:51:03;7.8;5.8;3.6
57798;PMS7003;43626;53.866;30.298;2023-09-08T23:55:56;7.4;5.6;3.2
